Ada, MN

8:23 PM CST on March 06, 2015 (GMT -0600)
East of Syre on 113 | Change Station
CLOSE
Current Station
Personal Weather Station
Location: Twin Valley, MN
Elevation: 1207 ft
Nearby Weather Stations

Elev 1207 ft 47.18 °N, 96.19 °W | Updated 13 seconds ago

Overcast
Overcast
32.9 °F
Feels Like 25 °F
N
8.9
Wind Variable Wind from SSW
Gusts 9.8 mph

Today
High -- | Low -- °F
--% Chance of Precip.
Yesterday
High -- | Low -- °F
Precip. -- in
6:57 AM 6:18 PM
Full, 98% visible
Pressure 29.99 in
Visibility 10.0 miles
Clouds Few 5000 ft
Scattered Clouds 6500 ft
Mostly Cloudy 9500 ft
Windchill 25 °F
Dew Point 20 °F
Humidity 58%
Rainfall in
Snow Depth Not available.
UV 0.0 out of 12
Pollen .10 out of 12
Air Quality Not available.
Flu Activity Not available.
METAR KFAR 070153Z 18007KT 10SM FEW050 SCT065 BKN095 02/M06 A2995 RMK AO2 SLP156 T00171061

More Conditions Fewer Conditions

Pressure 29.99 in
Visibility 10.0 miles
Clouds Few 5000 ft
Scattered Clouds 6500 ft
Mostly Cloudy 9500 ft
Windchill 25 °F
Dew Point 20 °F
Humidity 58%
Rainfall in
Snow Depth Not available.
UV 0.0 out of 12
Pollen .10 out of 12
Air Quality Not available.
Flu Activity Not available.
METAR KFAR 070153Z 18007KT 10SM FEW050 SCT065 BKN095 02/M06 A2995 RMK AO2 SLP156 T00171061

More Conditions Fewer Conditions

10-Day Weather Forecast

Almanac

Astronomy

Mar. 06, 2015 Rise Set
Actual Time
Civil Twilight
Nautical Twilight
Astronomical Twilight
Moon
Length of Visible Light
Length of Day
Tomorrow will be .
, % of the Moon is Illuminated

Today's Extremes

State Highs State Lows

Community

WunderPhotos

Upload Photos

1,803,499 photos uploaded!

WunderBlogs® & News

Nearby

Air Quality

  Air Quality AQ Index Pollutant
Not available.

Snow Depth

Station Depth Elevation

Earthquake Activity

City Distance Mag. Time & Date
Minimum magnitude displayed is 2.5.

Coastal Water Temperatures

Place Temperature

Nearby Weather Stations